Time;durP1;ratioP1;P1;durP2;ratioP2;P2;SDS_P1;SDS_P2;PMS_P1;PMS_P2;Temp;Humidity;BMP_temperature;BMP_pressure;BME280_temperature;BME280_humidity;BME280_pressure;Samples;Min_cycle;Max_cycle;Signal;HPM_P1;HPM_P2
2021/05/17 00:00:27;;;;;;;0.38;0.25;;;9.20;93.70;;;;;;4790193;29;20187;-84
2021/05/17 00:03:00;;;;;;;0.28;0.15;;;9.20;93.80;;;;;;4794091;29;20073;-83
2021/05/17 00:05:35;;;;;;;1.13;0.32;;;9.20;93.40;;;;;;4826908;29;20452;-82
2021/05/17 00:08:04;;;;;;;1.58;0.20;;;9.20;93.40;;;;;;4811597;29;20059;-84
2021/05/17 00:10:34;;;;;;;0.20;0.20;;;9.20;93.20;;;;;;4825253;29;20046;-82
2021/05/17 00:13:03;;;;;;;0.20;0.20;;;9.30;93.10;;;;;;4821515;29;20066;-83
2021/05/17 00:15:30;;;;;;;6.55;0.40;;;9.30;93.10;;;;;;4811122;29;20082;-83
2021/05/17 00:18:00;;;;;;;1.38;0.45;;;9.30;93.20;;;;;;4809996;29;20050;-82
2021/05/17 00:20:31;;;;;;;9.15;1.65;;;9.40;93.50;;;;;;4807015;29;20062;-83
2021/05/17 00:23:02;;;;;;;0.77;0.20;;;9.40;93.60;;;;;;4804944;29;20249;-82
2021/05/17 00:25:36;;;;;;;0.30;0.20;;;9.50;93.80;;;;;;4802852;29;20580;-84
2021/05/17 00:28:25;;;;;;;0.45;0.30;;;9.50;93.80;;;;;;4801745;29;20268;-83
2021/05/17 00:30:54;;;;;;;1.00;0.30;;;9.50;93.70;;;;;;4787872;29;20213;-83
2021/05/17 00:33:21;;;;;;;0.90;0.40;;;9.60;93.90;;;;;;4793628;29;20067;-84
2021/05/17 00:35:51;;;;;;;0.75;0.35;;;9.60;93.70;;;;;;4817053;29;20341;-83
2021/05/17 00:38:25;;;;;;;0.43;0.30;;;9.60;93.80;;;;;;4803640;29;20271;-82
2021/05/17 00:40:57;;;;;;;0.82;0.47;;;9.70;93.90;;;;;;4791251;29;20238;-82
2021/05/17 00:43:32;;;;;;;3.00;0.40;;;9.70;93.80;;;;;;4808252;29;20076;-84
2021/05/17 00:46:02;;;;;;;1.33;0.40;;;9.70;93.80;;;;;;4807955;29;20376;-83
2021/05/17 00:48:37;;;;;;;1.48;0.30;;;9.70;93.70;;;;;;4809768;29;20050;-83
2021/05/17 00:51:06;;;;;;;0.50;0.28;;;9.70;93.60;;;;;;4810250;29;20135;-83
2021/05/17 00:53:33;;;;;;;0.55;0.30;;;9.70;93.70;;;;;;4810652;29;20061;-84
2021/05/17 00:56:01;;;;;;;1.00;0.30;;;9.80;93.30;;;;;;4804516;29;20135;-83
2021/05/17 00:58:32;;;;;;;0.43;0.20;;;9.80;93.30;;;;;;4824036;29;20074;-83
2021/05/17 01:01:03;;;;;;;1.02;0.47;;;9.70;93.30;;;;;;4803338;29;20057;-84
2021/05/17 01:03:33;;;;;;;4.45;0.63;;;9.70;93.60;;;;;;4808769;29;20066;-84
2021/05/17 01:06:22;;;;;;;0.80;0.30;;;9.70;93.40;;;;;;4800892;29;20066;-82
2021/05/17 01:08:58;;;;;;;0.70;0.40;;;9.50;93.60;;;;;;4807397;29;20066;-83
2021/05/17 01:11:28;;;;;;;0.50;0.20;;;9.40;93.80;;;;;;4825424;29;20259;-83
2021/05/17 01:14:01;;;;;;;1.40;0.30;;;9.30;94.10;;;;;;4793678;29;20065;-85
2021/05/17 01:16:29;;;;;;;1.00;0.40;;;9.20;94.30;;;;;;4793916;29;20058;-82
2021/05/17 01:18:56;;;;;;;3.35;0.60;;;9.20;94.50;;;;;;4809220;29;20085;-83
2021/05/17 01:21:29;;;;;;;0.93;0.50;;;9.10;94.50;;;;;;4796334;29;20046;-81
2021/05/17 01:23:58;;;;;;;0.93;0.45;;;9.10;94.80;;;;;;4809685;29;20062;-83
2021/05/17 01:26:31;;;;;;;2.22;0.40;;;9.10;94.90;;;;;;4796449;29;20307;-82
2021/05/17 01:29:05;;;;;;;1.02;0.55;;;9.00;95.20;;;;;;4811178;29;20062;-84
2021/05/17 01:31:36;;;;;;;1.23;0.40;;;8.90;95.20;;;;;;4795088;29;20098;-85
2021/05/17 01:34:07;;;;;;;2.25;0.70;;;8.90;95.40;;;;;;4810746;29;20066;-83
2021/05/17 01:36:37;;;;;;;1.08;0.63;;;8.90;95.60;;;;;;4813813;29;20088;-82
2021/05/17 01:39:07;;;;;;;1.70;0.60;;;8.80;95.80;;;;;;4810704;29;20067;-82
2021/05/17 01:41:38;;;;;;;1.75;0.70;;;8.80;95.90;;;;;;4793904;29;20428;-83
2021/05/17 01:44:12;;;;;;;1.60;0.65;;;8.80;95.90;;;;;;4802654;29;20073;-83
2021/05/17 01:46:44;;;;;;;1.48;0.70;;;8.70;96.00;;;;;;4825267;29;20374;-83
2021/05/17 01:49:15;;;;;;;1.48;0.60;;;8.60;96.00;;;;;;4824975;29;20251;-82
2021/05/17 01:51:48;;;;;;;0.80;0.50;;;8.60;96.10;;;;;;4809254;29;20069;-86
2021/05/17 01:54:19;;;;;;;2.08;0.60;;;8.70;96.20;;;;;;4817694;29;20070;-82
2021/05/17 01:56:52;;;;;;;0.82;0.50;;;8.70;96.20;;;;;;4802806;29;20095;-82
2021/05/17 01:59:34;;;;;;;1.23;0.60;;;8.80;96.00;;;;;;4806009;29;20063;-85
2021/05/17 02:02:03;;;;;;;2.42;0.38;;;8.90;95.90;;;;;;4817409;29;20062;-84
2021/05/17 02:04:33;;;;;;;0.70;0.40;;;8.90;95.60;;;;;;4809377;29;20074;-84
2021/05/17 02:07:01;;;;;;;4.20;0.80;;;8.90;95.60;;;;;;4809372;29;20058;-83
2021/05/17 02:09:32;;;;;;;1.15;0.45;;;8.90;95.40;;;;;;4795816;29;20188;-84
2021/05/17 02:12:01;;;;;;;0.60;0.40;;;9.00;95.20;;;;;;4804641;29;20110;-84
2021/05/17 02:15:06;;;;;;;0.40;0.35;;;9.10;94.80;;;;;;4815355;29;20055;-83
2021/05/17 02:17:36;;;;;;;5.82;0.65;;;9.10;94.50;;;;;;4802610;29;20099;-84
2021/05/17 02:20:05;;;;;;;0.32;0.30;;;9.20;94.60;;;;;;4793325;29;20078;-84
2021/05/17 02:22:44;;;;;;;0.63;0.30;;;9.20;94.60;;;;;;4806205;29;21257;-85
2021/05/17 02:25:26;;;;;;;1.27;0.40;;;9.30;94.50;;;;;;4809408;29;20058;-83
2021/05/17 02:27:58;;;;;;;1.33;0.50;;;9.40;94.20;;;;;;4822601;29;20402;-83
2021/05/17 02:30:27;;;;;;;2.67;0.30;;;9.30;94.10;;;;;;4821999;29;20066;-82
2021/05/17 02:32:55;;;;;;;1.55;0.50;;;9.40;94.10;;;;;;4809043;29;20055;-83
2021/05/17 02:35:32;;;;;;;1.52;0.43;;;9.40;94.40;;;;;;4806592;29;20070;-82
2021/05/17 02:38:00;;;;;;;1.15;0.50;;;9.40;94.30;;;;;;4777455;29;20072;-83
2021/05/17 02:40:36;;;;;;;0.32;0.32;;;9.50;94.10;;;;;;4823196;29;20103;-84
2021/05/17 02:43:05;;;;;;;1.80;0.50;;;9.50;93.90;;;;;;4818520;29;20058;-83
2021/05/17 02:46:01;;;;;;;0.57;0.30;;;9.60;93.80;;;;;;4788740;29;20081;-84
2021/05/17 02:48:32;;;;;;;1.60;0.75;;;9.60;93.90;;;;;;4823455;29;20058;-84
2021/05/17 02:51:00;;;;;;;1.38;0.40;;;9.60;93.80;;;;;;4819800;29;20118;-82
2021/05/17 02:54:11;;;;;;;0.75;0.30;;;9.60;93.70;;;;;;4785615;29;20393;-85
2021/05/17 02:57:07;;;;;;;4.43;0.40;;;9.70;93.60;;;;;;4805278;29;20066;-84
2021/05/17 03:00:03;;;;;;;1.38;0.50;;;9.70;93.50;;;;;;4786682;29;20335;-84
2021/05/17 03:02:39;;;;;;;0.98;0.45;;;9.70;93.00;;;;;;4776908;29;20077;-84
2021/05/17 03:05:08;;;;;;;2.35;0.50;;;9.60;93.10;;;;;;4785974;29;20161;-83
2021/05/17 03:07:40;;;;;;;3.92;0.30;;;9.60;93.30;;;;;;4795215;29;20054;-83
2021/05/17 03:10:14;;;;;;;1.50;0.77;;;9.60;93.10;;;;;;4796019;29;20054;-85
2021/05/17 03:12:42;;;;;;;2.47;0.63;;;9.60;93.30;;;;;;4824124;29;20208;-83
2021/05/17 03:15:13;;;;;;;5.57;0.70;;;9.60;93.10;;;;;;4808145;29;20055;-83
2021/05/17 03:17:42;;;;;;;0.52;0.30;;;9.60;93.00;;;;;;4824826;29;20498;-84
2021/05/17 03:20:10;;;;;;;1.83;0.45;;;9.60;93.20;;;;;;4826921;29;20567;-85
2021/05/17 03:22:39;;;;;;;2.90;0.50;;;9.70;93.10;;;;;;4811473;29;20070;-83
2021/05/17 03:25:14;;;;;;;1.10;0.40;;;9.60;93.00;;;;;;4797078;29;20224;-84
2021/05/17 03:27:42;;;;;;;1.38;0.50;;;9.70;93.20;;;;;;4813650;29;20071;-82
2021/05/17 03:30:10;;;;;;;1.27;0.60;;;9.70;93.00;;;;;;4794716;29;20066;-83
2021/05/17 03:32:37;;;;;;;1.30;0.60;;;9.70;93.00;;;;;;4811316;29;20059;-83
2021/05/17 03:35:06;;;;;;;1.30;0.50;;;9.70;93.10;;;;;;4795096;29;20054;-83
2021/05/17 03:37:33;;;;;;;2.42;0.68;;;9.70;92.90;;;;;;4794852;29;20055;-83
2021/05/17 03:40:00;;;;;;;0.80;0.40;;;9.60;92.90;;;;;;4828333;29;20059;-83
2021/05/17 03:42:35;;;;;;;1.23;0.50;;;9.70;93.00;;;;;;4830060;29;20359;-84
2021/05/17 03:45:05;;;;;;;2.30;0.50;;;9.70;93.10;;;;;;4813141;29;20084;-83
2021/05/17 03:47:33;;;;;;;1.00;0.50;;;9.70;93.00;;;;;;4807758;29;20078;-83
2021/05/17 03:50:02;;;;;;;1.30;0.63;;;9.80;93.00;;;;;;4822480;29;20332;-83
2021/05/17 03:52:29;;;;;;;0.77;0.30;;;9.80;92.90;;;;;;4808223;29;20047;-83
2021/05/17 03:54:56;;;;;;;2.78;1.08;;;9.80;92.80;;;;;;4811817;29;20086;-82
2021/05/17 03:57:23;;;;;;;1.02;0.52;;;9.90;92.70;;;;;;4793600;29;20070;-84
2021/05/17 03:59:50;;;;;;;1.67;0.60;;;9.90;92.80;;;;;;4806476;29;20055;-84
2021/05/17 04:02:20;;;;;;;1.50;0.45;;;10.00;92.90;;;;;;4818742;29;20062;-83
2021/05/17 04:04:56;;;;;;;1.23;0.50;;;10.00;92.70;;;;;;4816440;29;20228;-85
2021/05/17 04:07:40;;;;;;;1.70;0.40;;;10.00;92.50;;;;;;4805589;29;20059;-84
2021/05/17 04:15:42;;;;;;;0.88;0.47;;;10.10;92.80;;;;;;4788462;29;20127;-84
2021/05/17 04:18:10;;;;;;;2.28;0.75;;;10.10;92.50;;;;;;4787414;29;21563;-87
2021/05/17 04:20:37;;;;;;;1.15;0.38;;;10.20;92.60;;;;;;4820989;29;20062;-83
2021/05/17 04:23:09;;;;;;;0.63;0.37;;;10.20;92.80;;;;;;4783480;29;20089;-84
2021/05/17 04:25:36;;;;;;;0.63;0.50;;;10.30;92.90;;;;;;4791516;29;20320;-83
2021/05/17 04:28:06;;;;;;;1.00;0.52;;;10.30;92.90;;;;;;4776735;29;20054;-83
2021/05/17 04:30:33;;;;;;;6.25;0.73;;;10.20;92.60;;;;;;4803495;29;20062;-83
2021/05/17 04:33:02;;;;;;;1.13;0.50;;;10.20;92.50;;;;;;4800609;29;20055;-84
2021/05/17 04:35:30;;;;;;;1.13;0.60;;;10.20;92.60;;;;;;4794537;29;20051;-83
2021/05/17 04:37:59;;;;;;;2.33;0.70;;;10.30;92.70;;;;;;4808921;29;20147;-86
2021/05/17 04:40:26;;;;;;;1.63;0.80;;;10.40;92.90;;;;;;4823178;29;20054;-86
2021/05/17 04:42:58;;;;;;;3.20;0.70;;;10.40;92.30;;;;;;4797260;29;20058;-84
2021/05/17 04:45:27;;;;;;;1.55;0.73;;;10.40;92.20;;;;;;4800015;29;20063;-85
2021/05/17 04:47:57;;;;;;;1.88;0.60;;;10.40;92.00;;;;;;4787529;29;20086;-83
2021/05/17 04:50:24;;;;;;;1.65;0.75;;;10.40;91.80;;;;;;4803389;29;20065;-82
2021/05/17 04:52:52;;;;;;;1.85;0.88;;;10.60;92.40;;;;;;4803965;29;20055;-83
2021/05/17 04:55:20;;;;;;;2.17;1.20;;;10.50;91.40;;;;;;4805008;29;20918;-85
2021/05/17 04:57:47;;;;;;;4.32;0.90;;;10.60;91.70;;;;;;4820235;29;20061;-82
2021/05/17 05:00:15;;;;;;;3.72;0.93;;;10.60;91.50;;;;;;4803489;29;20229;-84
2021/05/17 05:02:42;;;;;;;3.72;1.23;;;10.70;91.60;;;;;;4802326;29;20066;-83
2021/05/17 05:05:10;;;;;;;1.50;0.80;;;10.60;91.20;;;;;;4803320;29;20207;-82
2021/05/17 05:07:37;;;;;;;2.10;0.98;;;10.70;91.30;;;;;;4803683;29;20354;-82
2021/05/17 05:10:13;;;;;;;2.60;1.23;;;10.70;91.30;;;;;;4782923;29;20118;-84
2021/05/17 05:12:41;;;;;;;5.40;1.33;;;10.90;91.20;;;;;;4793636;29;20062;-83
2021/05/17 05:15:08;;;;;;;5.50;1.10;;;11.00;90.50;;;;;;4802317;29;20058;-82
2021/05/17 05:17:50;;;;;;;1.65;0.85;;;11.00;90.50;;;;;;4799001;29;20834;-83
2021/05/17 05:20:18;;;;;;;2.88;0.80;;;11.00;90.00;;;;;;4819652;29;20394;-82
2021/05/17 05:22:45;;;;;;;3.35;1.10;;;11.10;90.40;;;;;;4801675;29;20369;-82
2021/05/17 05:25:15;;;;;;;2.17;1.00;;;11.30;89.90;;;;;;4818454;29;20054;-86
2021/05/17 05:27:44;;;;;;;3.75;1.13;;;11.20;89.80;;;;;;4800667;29;20114;-85
2021/05/17 05:30:26;;;;;;;3.55;1.15;;;11.30;90.30;;;;;;4789208;29;20054;-82
2021/05/17 05:32:55;;;;;;;2.15;0.70;;;11.20;90.40;;;;;;4802158;29;20055;-85
2021/05/17 05:35:24;;;;;;;2.88;0.80;;;11.30;89.80;;;;;;4803347;29;20078;-84
2021/05/17 05:37:52;;;;;;;2.90;1.00;;;11.10;90.40;;;;;;4786371;29;20078;-83
2021/05/17 05:40:21;;;;;;;3.40;0.80;;;11.20;90.10;;;;;;4797610;29;20070;-83
2021/05/17 05:42:50;;;;;;;1.48;0.88;;;11.20;89.80;;;;;;4810207;29;20071;-83
2021/05/17 05:45:20;;;;;;;3.78;0.98;;;11.20;89.80;;;;;;4820733;29;20055;-83
2021/05/17 05:47:48;;;;;;;2.38;0.88;;;11.10;89.80;;;;;;4810047;29;20529;-84
2021/05/17 05:50:16;;;;;;;1.75;0.68;;;11.10;89.50;;;;;;4805545;29;20281;-83
2021/05/17 05:52:43;;;;;;;5.68;0.88;;;11.20;90.10;;;;;;4799263;29;20050;-82
2021/05/17 05:55:14;;;;;;;1.80;0.80;;;11.20;90.00;;;;;;4801910;29;20369;-85
2021/05/17 05:57:43;;;;;;;4.45;0.90;;;11.10;89.60;;;;;;4805725;29;20066;-82
2021/05/17 06:00:14;;;;;;;5.10;1.00;;;11.10;90.50;;;;;;4815100;29;20065;-83
2021/05/17 06:02:45;;;;;;;2.65;0.85;;;11.20;90.30;;;;;;4803762;29;20115;-82
2021/05/17 06:05:13;;;;;;;7.75;1.10;;;11.20;90.60;;;;;;4787504;29;20063;-84
2021/05/17 06:07:40;;;;;;;4.20;0.93;;;11.20;90.50;;;;;;4796262;29;20051;-85
2021/05/17 06:10:09;;;;;;;0.93;0.70;;;11.10;90.70;;;;;;4801567;29;20354;-84
2021/05/17 06:12:39;;;;;;;3.08;0.88;;;11.10;90.60;;;;;;4789968;29;20350;-83
2021/05/17 06:15:08;;;;;;;3.58;0.80;;;11.10;91.00;;;;;;4801812;29;20071;-82
2021/05/17 06:17:35;;;;;;;3.38;0.80;;;11.30;90.60;;;;;;4802044;29;20058;-84
2021/05/17 06:20:10;;;;;;;1.60;0.82;;;11.20;89.80;;;;;;4805618;29;20108;-83
2021/05/17 06:22:38;;;;;;;1.02;0.65;;;11.40;89.00;;;;;;4771662;29;20157;-84
2021/05/17 06:25:07;;;;;;;1.42;0.60;;;11.50;89.50;;;;;;4812680;29;20243;-84
2021/05/17 06:27:35;;;;;;;1.02;0.80;;;11.60;89.00;;;;;;4800048;29;20058;-85
2021/05/17 06:30:03;;;;;;;1.25;0.60;;;11.70;88.90;;;;;;4788439;29;20054;-84
2021/05/17 06:32:34;;;;;;;6.30;0.82;;;11.70;88.50;;;;;;4801190;29;20069;-83
2021/05/17 06:35:02;;;;;;;1.45;0.50;;;11.60;88.40;;;;;;4804577;29;20055;-84
2021/05/17 06:37:29;;;;;;;3.00;0.60;;;11.70;88.40;;;;;;4819012;29;20054;-82
2021/05/17 06:39:56;;;;;;;5.40;0.77;;;11.90;87.40;;;;;;4807709;29;22893;-83
2021/05/17 06:42:23;;;;;;;1.85;0.70;;;11.80;87.70;;;;;;4805277;29;20069;-84
2021/05/17 06:44:51;;;;;;;1.88;0.80;;;11.90;87.80;;;;;;4804609;29;20149;-83
2021/05/17 06:47:18;;;;;;;2.42;0.63;;;11.70;87.80;;;;;;4807286;29;20065;-83
2021/05/17 06:49:46;;;;;;;2.05;1.10;;;11.80;88.00;;;;;;4771254;29;20054;-84
2021/05/17 06:52:15;;;;;;;4.43;0.95;;;11.80;87.80;;;;;;4805508;29;20154;-82
2021/05/17 06:54:43;;;;;;;2.85;0.90;;;11.90;88.00;;;;;;4820395;29;20233;-84
2021/05/17 06:57:19;;;;;;;1.65;0.80;;;12.00;87.00;;;;;;4789230;29;20078;-83
2021/05/17 06:59:48;;;;;;;1.63;0.93;;;11.90;87.70;;;;;;4805684;29;20085;-84
2021/05/17 07:02:20;;;;;;;3.45;1.10;;;11.90;87.70;;;;;;4806770;29;20092;-82
2021/05/17 07:04:50;;;;;;;1.48;0.93;;;11.80;88.00;;;;;;4793499;29;20062;-84
2021/05/17 07:07:22;;;;;;;4.90;1.00;;;11.80;87.30;;;;;;4821176;29;20058;-83
2021/05/17 07:12:34;;;;;;;1.70;0.90;;;11.90;87.80;;;;;;4803831;29;20114;-82
2021/05/17 07:15:05;;;;;;;2.22;0.80;;;11.60;88.70;;;;;;4807145;29;20078;-83
2021/05/17 07:17:33;;;;;;;5.55;1.45;;;11.60;89.00;;;;;;4809325;29;20051;-83
2021/05/17 07:20:04;;;;;;;3.17;1.15;;;11.60;88.70;;;;;;4809291;29;20066;-84
2021/05/17 07:25:20;;;;;;;2.13;0.75;;;11.80;89.10;;;;;;4786745;29;20051;-84
2021/05/17 07:27:50;;;;;;;3.10;1.23;;;11.90;88.20;;;;;;4794349;29;20061;-84
2021/05/17 07:30:18;;;;;;;2.20;0.63;;;12.10;87.70;;;;;;4804896;29;20291;-82
2021/05/17 07:32:45;;;;;;;2.28;0.60;;;12.20;87.00;;;;;;4805870;29;20077;-83
2021/05/17 07:35:14;;;;;;;1.33;0.90;;;12.40;85.90;;;;;;4803015;29;20058;-83
2021/05/17 07:37:41;;;;;;;1.05;0.60;;;12.60;85.80;;;;;;4785824;29;20066;-83
2021/05/17 07:40:11;;;;;;;1.20;0.50;;;12.60;85.20;;;;;;4805952;29;20123;-83
2021/05/17 07:42:38;;;;;;;0.73;0.40;;;12.60;84.80;;;;;;4789812;29;20058;-82
2021/05/17 07:45:11;;;;;;;2.15;0.73;;;12.50;84.20;;;;;;4798749;29;20054;-81
2021/05/17 07:47:39;;;;;;;4.30;1.02;;;12.70;84.20;;;;;;4788701;29;20361;-82
2021/05/17 07:50:08;;;;;;;2.17;0.70;;;12.80;84.10;;;;;;4805789;29;20058;-83
2021/05/17 07:52:37;;;;;;;3.65;0.60;;;12.80;83.90;;;;;;4803048;29;20050;-81
2021/05/17 07:55:05;;;;;;;2.03;0.80;;;12.80;83.90;;;;;;4799806;29;20063;-84
2021/05/17 07:57:32;;;;;;;0.85;0.50;;;12.80;84.10;;;;;;4801655;29;20461;-82
2021/05/17 07:59:59;;;;;;;1.05;0.50;;;12.70;83.80;;;;;;4803925;29;20050;-81
2021/05/17 08:02:27;;;;;;;0.95;0.77;;;12.40;84.30;;;;;;4797348;29;20362;-80
2021/05/17 08:04:54;;;;;;;1.27;0.50;;;12.40;84.10;;;;;;4817846;29;20062;-81
2021/05/17 08:07:22;;;;;;;2.35;0.80;;;12.50;83.30;;;;;;4790110;29;20237;-81
2021/05/17 08:09:51;;;;;;;1.17;0.70;;;12.60;83.20;;;;;;4815009;29;20062;-81
2021/05/17 08:12:19;;;;;;;1.45;0.80;;;12.80;82.10;;;;;;4804007;29;20051;-81
2021/05/17 08:14:46;;;;;;;1.92;1.17;;;12.90;81.90;;;;;;4815374;29;20066;-81
2021/05/17 08:17:13;;;;;;;3.15;0.77;;;13.00;81.40;;;;;;4802808;29;20059;-80
2021/05/17 08:19:40;;;;;;;4.07;0.80;;;13.00;82.40;;;;;;4785370;29;20066;-81
2021/05/17 08:22:07;;;;;;;2.55;0.65;;;13.20;81.80;;;;;;4795644;29;20066;-80
2021/05/17 08:24:34;;;;;;;0.77;0.43;;;13.40;81.70;;;;;;4787668;29;20287;-81
2021/05/17 08:27:05;;;;;;;2.25;0.75;;;13.80;79.30;;;;;;4817001;29;20062;-80
2021/05/17 08:29:33;;;;;;;0.70;0.60;;;13.80;78.80;;;;;;4816319;29;20059;-80
2021/05/17 08:32:02;;;;;;;1.58;0.50;;;13.70;80.20;;;;;;4818195;29;20062;-81
2021/05/17 08:34:31;;;;;;;;;;;13.60;77.30;;;;;;4798696;29;20121;-81
2021/05/17 08:36:58;;;;;;;0.85;0.57;;;13.30;79.70;;;;;;4800911;29;20232;-80
2021/05/17 08:39:25;;;;;;;4.68;0.95;;;13.40;80.40;;;;;;4774064;29;20063;-81
2021/05/17 08:41:52;;;;;;;1.10;0.40;;;13.30;78.70;;;;;;4815860;29;20059;-81
2021/05/17 08:44:23;;;;;;;2.03;0.73;;;13.10;79.60;;;;;;4784044;29;20073;-83
2021/05/17 08:46:51;;;;;;;2.15;0.70;;;13.10;80.90;;;;;;4815287;29;20139;-82
2021/05/17 08:49:19;;;;;;;1.27;0.55;;;13.10;81.10;;;;;;4803878;29;20065;-81
2021/05/17 08:51:48;;;;;;;1.73;0.80;;;12.90;82.20;;;;;;4796676;29;20362;-84
2021/05/17 08:54:15;;;;;;;1.73;0.70;;;12.60;95.20;;;;;;4800185;29;20082;-80
2021/05/17 08:56:46;;;;;;;4.57;0.88;;;12.50;96.80;;;;;;4785155;29;20096;-80
2021/05/17 08:59:15;;;;;;;3.13;1.10;;;12.70;97.10;;;;;;4801209;29;20050;-82
2021/05/17 09:01:43;;;;;;;3.70;0.80;;;12.90;95.70;;;;;;4795789;29;20080;-82
2021/05/17 09:04:12;;;;;;;4.03;0.90;;;13.10;94.50;;;;;;4799094;29;20061;-80
2021/05/17 09:06:57;;;;;;;0.98;0.58;;;13.70;91.90;;;;;;1127602;29;10022706;-80
2021/05/17 09:09:29;;;;;;;4.40;0.82;;;14.30;86.20;;;;;;4469724;29;10001556;-81
2021/05/17 09:12:02;;;;;;;2.47;0.75;;;14.40;80.90;;;;;;4805455;29;20126;-81
2021/05/17 09:14:32;;;;;;;5.00;0.80;;;14.40;81.10;;;;;;4809534;29;20063;-80
2021/05/17 09:17:04;;;;;;;1.92;0.70;;;14.60;76.60;;;;;;4823239;29;20341;-82
2021/05/17 09:19:32;;;;;;;2.92;0.60;;;14.60;74.80;;;;;;4808359;29;20119;-82
2021/05/17 09:22:18;;;;;;;3.35;0.70;;;14.60;77.30;;;;;;4800011;29;20219;-82
2021/05/17 09:24:48;;;;;;;1.95;0.50;;;14.80;74.70;;;;;;4813379;29;20066;-80
2021/05/17 09:27:18;;;;;;;1.70;0.73;;;15.10;72.90;;;;;;4804001;29;20067;-81
2021/05/17 09:29:46;;;;;;;;;;;14.90;74.00;;;;;;4808425;29;20051;-82
2021/05/17 09:32:21;;;;;;;3.17;0.40;;;14.10;84.20;;;;;;4816934;29;19929;-81
2021/05/17 09:34:58;;;;;;;0.80;0.40;;;12.50;91.30;;;;;;4783951;29;20424;-82
2021/05/17 09:37:26;;;;;;;5.40;0.70;;;12.20;91.70;;;;;;4811418;29;20122;-81
2021/05/17 09:39:54;;;;;;;2.05;0.70;;;12.20;90.70;;;;;;4803159;29;20353;-83
2021/05/17 09:42:25;;;;;;;1.67;0.80;;;12.30;91.30;;;;;;4798147;29;20067;-81
2021/05/17 09:44:56;;;;;;;2.10;0.70;;;12.30;91.40;;;;;;4804269;29;20089;-81
2021/05/17 09:47:24;;;;;;;6.05;1.10;;;12.30;87.70;;;;;;4821263;29;20095;-81
2021/05/17 09:49:52;;;;;;;3.13;0.63;;;12.10;88.30;;;;;;4820917;29;20067;-83
2021/05/17 09:52:21;;;;;;;1.50;1.02;;;12.00;85.40;;;;;;4811371;29;20104;-81
2021/05/17 09:55:00;;;;;;;3.67;0.70;;;11.70;86.10;;;;;;4811434;29;20055;-81
2021/05/17 09:57:31;;;;;;;3.83;0.50;;;11.60;84.30;;;;;;4824927;29;20074;-81
2021/05/17 09:59:59;;;;;;;;;;;11.10;85.50;;;;;;4810208;29;20062;-82
2021/05/17 10:02:32;;;;;;;1.10;0.30;;;11.00;87.80;;;;;;4802832;29;19936;-81
2021/05/17 10:05:15;;;;;;;2.42;0.30;;;11.10;87.50;;;;;;4793255;29;20090;-81
2021/05/17 10:07:43;;;;;;;4.15;0.50;;;11.60;88.50;;;;;;4822274;29;20066;-80
2021/05/17 10:10:12;;;;;;;1.77;0.50;;;12.10;86.50;;;;;;4806434;29;20119;-80
2021/05/17 10:12:42;;;;;;;4.60;0.70;;;12.70;85.20;;;;;;4820534;29;20072;-81
2021/05/17 10:15:12;;;;;;;3.65;0.60;;;13.40;82.90;;;;;;4803219;29;20058;-81
2021/05/17 10:17:41;;;;;;;2.03;0.50;;;14.40;84.50;;;;;;4811484;29;20143;-81
2021/05/17 10:20:13;;;;;;;0.57;0.35;;;15.50;79.10;;;;;;4812442;29;20107;-80
2021/05/17 10:22:41;;;;;;;4.20;0.80;;;16.60;75.80;;;;;;4796909;29;20102;-81
2021/05/17 10:25:11;;;;;;;1.45;0.63;;;17.60;71.10;;;;;;4813099;29;20086;-81
2021/05/17 10:27:46;;;;;;;;;;;18.20;70.10;;;;;;4812803;29;20256;-80
2021/05/17 10:30:15;;;;;;;1.17;0.40;;;18.80;71.10;;;;;;4814736;29;19929;-82
2021/05/17 10:32:45;;;;;;;1.48;0.40;;;18.80;70.00;;;;;;4803486;29;20107;-84
2021/05/17 10:35:16;;;;;;;2.58;0.60;;;18.90;67.20;;;;;;4803145;29;21156;-81
2021/05/17 10:37:46;;;;;;;2.80;0.90;;;18.40;69.50;;;;;;4825344;29;20054;-80
2021/05/17 10:40:36;;;;;;;2.40;0.77;;;17.10;68.80;;;;;;4812922;29;20062;-82
2021/05/17 10:43:17;;;;;;;2.65;0.90;;;16.30;72.90;;;;;;4817321;29;20058;-82
2021/05/17 10:48:32;;;;;;;1.40;0.70;;;14.70;76.60;;;;;;4827464;29;20047;-81
2021/05/17 10:51:15;;;;;;;3.97;0.80;;;13.70;82.40;;;;;;4798975;29;20089;-82
2021/05/17 10:53:48;;;;;;;1.35;0.40;;;13.20;86.20;;;;;;4816007;29;20051;-81
2021/05/17 10:56:17;;;;;;;0.95;0.40;;;13.20;85.60;;;;;;4814481;29;20059;-80
2021/05/17 11:01:59;;;;;;;2.22;0.65;;;12.90;83.60;;;;;;4825559;29;20059;-80
2021/05/17 11:04:30;;;;;;;2.38;0.60;;;12.60;88.50;;;;;;4808354;29;20074;-81
2021/05/17 11:07:13;;;;;;;;;;;12.60;89.40;;;;;;4805923;29;20066;-81
2021/05/17 11:09:43;;;;;;;2.33;0.55;;;12.70;89.70;;;;;;4807256;29;19929;-81
2021/05/17 11:12:35;;;;;;;6.18;1.15;;;13.30;89.20;;;;;;4810300;29;20066;-80
2021/05/17 11:15:09;;;;;;;1.70;0.68;;;14.70;82.30;;;;;;4806056;29;20163;-81
2021/05/17 11:18:00;;;;;;;1.98;0.50;;;16.60;76.70;;;;;;4809327;29;20050;-81
2021/05/17 11:20:56;;;;;;;1.60;0.50;;;18.10;77.10;;;;;;4823286;29;20143;-80
2021/05/17 11:23:52;;;;;;;1.17;0.50;;;19.10;66.30;;;;;;4819149;29;20191;-80
2021/05/17 11:26:23;;;;;;;7.00;1.05;;;17.10;71.90;;;;;;4801737;29;20358;-83
2021/05/17 11:29:03;;;;;;;3.58;0.80;;;16.10;76.80;;;;;;4808658;29;20054;-81
2021/05/17 11:31:50;;;;;;;4.07;0.60;;;15.70;76.20;;;;;;4806583;29;20058;-83
2021/05/17 11:34:27;;;;;;;1.58;0.40;;;15.10;77.00;;;;;;4810265;29;20066;-83
2021/05/17 11:37:12;;;;;;;6.18;1.00;;;14.70;78.70;;;;;;4798346;29;20377;-81
2021/05/17 11:39:40;;;;;;;2.70;0.60;;;15.00;78.90;;;;;;4825799;29;20050;-80
2021/05/17 11:42:09;;;;;;;0.85;0.50;;;15.20;77.20;;;;;;4820706;29;20067;-81
2021/05/17 11:44:41;;;;;;;2.13;0.50;;;15.30;80.00;;;;;;4789427;29;20135;-82
2021/05/17 11:47:11;;;;;;;1.63;0.80;;;18.60;73.80;;;;;;4805662;29;20381;-81
2021/05/17 11:49:41;;;;;;;2.75;0.68;;;20.60;65.20;;;;;;4823577;29;20077;-81
2021/05/17 11:52:12;;;;;;;;;;;21.40;61.30;;;;;;4807704;29;20105;-80
2021/05/17 11:54:41;;;;;;;2.10;0.32;;;24.50;55.00;;;;;;4786229;29;19925;-82
2021/05/17 11:57:09;;;;;;;1.48;0.55;;;23.50;53.50;;;;;;4807362;29;20137;-80
2021/05/17 11:59:38;;;;;;;0.60;0.22;;;22.60;50.70;;;;;;4805503;29;20054;-81
2021/05/17 12:02:07;;;;;;;0.70;0.30;;;20.60;53.60;;;;;;4823265;29;20074;-81
2021/05/17 12:04:35;;;;;;;0.75;0.32;;;23.10;50.40;;;;;;4812291;29;20111;-81
2021/05/17 12:07:04;;;;;;;0.20;0.20;;;24.60;43.60;;;;;;4812798;29;20058;-80
2021/05/17 12:09:41;;;;;;;0.20;0.20;;;24.00;39.90;;;;;;4811781;29;20058;-80
2021/05/17 12:12:15;;;;;;;1.98;0.15;;;21.90;41.90;;;;;;4811521;29;20065;-80
2021/05/17 12:14:44;;;;;;;1.80;0.43;;;21.70;44.20;;;;;;4813432;29;20051;-81
2021/05/17 12:17:19;;;;;;;1.27;0.30;;;20.60;50.00;;;;;;4806572;29;20085;-80
2021/05/17 12:19:48;;;;;;;0.75;0.35;;;19.50;53.10;;;;;;4810218;29;20061;-81
2021/05/17 12:22:23;;;;;;;0.38;0.25;;;18.90;52.90;;;;;;4826890;29;20062;-84
2021/05/17 12:24:51;;;;;;;1.20;0.30;;;18.20;55.50;;;;;;4805804;29;20125;-80
2021/05/17 12:27:20;;;;;;;2.38;0.40;;;17.20;56.30;;;;;;4823628;29;20950;-80
2021/05/17 12:29:53;;;;;;;2.90;0.30;;;18.90;54.60;;;;;;4812615;29;20088;-80
2021/05/17 12:32:22;;;;;;;0.93;0.40;;;19.70;51.40;;;;;;4815325;29;20058;-82
2021/05/17 12:34:55;;;;;;;1.90;0.50;;;18.80;52.90;;;;;;4804014;29;20085;-80
2021/05/17 12:37:24;;;;;;;1.10;0.35;;;17.50;56.60;;;;;;4802860;29;20298;-81
2021/05/17 12:40:06;;;;;;;3.67;0.70;;;;;;;;;;4793740;29;20049;-82
2021/05/17 12:42:34;;;;;;;2.15;0.30;;;14.10;91.60;;;;;;4812255;29;20063;-82
2021/05/17 12:45:04;;;;;;;1.17;0.40;;;13.00;93.00;;;;;;4790784;29;20058;-83
2021/05/17 12:47:37;;;;;;;;;;;12.60;94.90;;;;;;4815417;29;20257;-82
2021/05/17 12:50:06;;;;;;;1.60;0.45;;;12.60;96.20;;;;;;4811774;29;19954;-83
2021/05/17 12:52:36;;;;;;;2.00;0.60;;;12.40;96.00;;;;;;4825591;29;20085;-82
2021/05/17 12:55:12;;;;;;;3.83;0.45;;;12.20;96.40;;;;;;4798260;29;20058;-80
2021/05/17 12:57:52;;;;;;;1.33;0.43;;;12.00;94.40;;;;;;4830419;29;20066;-82
2021/05/17 13:00:49;;;;;;;0.73;0.20;;;11.10;91.90;;;;;;4809961;29;20099;-85
2021/05/17 13:03:19;;;;;;;0.30;0.10;;;10.60;93.60;;;;;;4809789;29;20146;-83
2021/05/17 13:05:54;;;;;;;0.20;0.20;;;10.40;93.80;;;;;;4784143;29;20406;-83
2021/05/17 13:08:22;;;;;;;0.35;0.20;;;10.20;95.30;;;;;;4807422;29;20060;-82
2021/05/17 13:11:05;;;;;;;0.63;0.22;;;10.30;96.00;;;;;;4794874;29;20367;-83
2021/05/17 13:13:50;;;;;;;0.88;0.20;;;10.60;96.80;;;;;;4806368;29;21069;-82
2021/05/17 13:16:22;;;;;;;1.20;0.35;;;10.60;96.80;;;;;;4807941;29;20071;-82
2021/05/17 13:18:54;;;;;;;0.57;0.20;;;10.80;97.10;;;;;;4821224;29;20349;-85
2021/05/17 13:21:33;;;;;;;2.20;0.30;;;11.20;97.40;;;;;;4808498;29;20051;-84
2021/05/17 13:32:50;;;;;;;1.42;0.45;;;17.50;91.40;;;;;;4793760;29;20260;-81
2021/05/17 13:35:18;;;;;;;0.50;0.30;;;18.60;91.90;;;;;;4807281;29;20118;-82
2021/05/17 13:37:45;;;;;;;2.90;0.50;;;20.40;88.70;;;;;;4791529;29;20412;-81
2021/05/17 13:40:14;;;;;;;1.10;0.20;;;22.60;82.80;;;;;;4808093;29;20077;-82